This is the latest recevied weather packets stored in our database for station/object OK1FET-15. If no packets are shown the sender has not sent any weather packets the latest 10 day(s).
| Time | Temp. | Humidity | Pressure | Rain* | Wind** | Luminosity | Snow |
|---|---|---|---|---|---|---|---|
| 1787557023 | 19.44° C | 68% | 1023.2 hPa | - | - | - | - |
| 1787556714 | 19.44° C | 65% | 1023.2 hPa | - | - | - | - |
| 1787556407 | 19.44° C | 65% | 1023.2 hPa | - | - | - | - |
| 1787556099 | 19.44° C | 75% | 1023.2 hPa | - | - | - | - |
| 1787555791 | 19.44° C | 79% | 1023.2 hPa | - | - | - | - |
| 1787555484 | 18.89° C | 81% | 1023.2 hPa | - | - | - | - |
| 1787555176 | 18.89° C | 86% | 1023.2 hPa | - | - | - | - |
| 1787554868 | 18.89° C | 98% | 1023.2 hPa | - | - | - | - |
| 1787554561 | 18.33° C | 100% | 1023.3 hPa | - | - | - | - |
| 1787554253 | 18.33° C | 100% | 1023.2 hPa | - | - | - | - |
| 1787553946 | 17.22° C | 100% | 1023.3 hPa | - | - | - | - |
| 1787553638 | 16.67° C | 100% | 1023.3 hPa | - | - | - | - |
| 1787553313 | 16.11° C | 100% | 1023.3 hPa | - | - | - | - |
| 1787552988 | 15° C | 100% | 1023.4 hPa | - | - | - | - |
| 1787552663 | 14.44° C | 100% | 1023.4 hPa | - | - | - | - |
| 1787552339 | 13.33° C | 100% | 1023.4 hPa | - | - | - | - |
| 1787552014 | 12.78° C | 100% | 1023.4 hPa | - | - | - | - |
| 1787551689 | 12.22° C | 100% | 1023.4 hPa | - | - | - | - |
| 1787536994 | 8.89° C | 100% | 1022.9 hPa | - | - | - | - |
| 1787536687 | 8.89° C | 100% | 1023 hPa | - | - | - | - |
| 1787536380 | 8.89° C | 100% | 1023 hPa | - | - | - | - |
| 1787536073 | 8.89° C | 100% | 1023 hPa | - | - | - | - |
| 1787535766 | 8.89° C | 100% | 1023.1 hPa | - | - | - | - |
| 1787535459 | 8.89° C | 100% | 1023 hPa | - | - | - | - |
| 1787535152 | 8.89° C | 100% | 1023 hPa | - | - | - | - |
* Rain since midnight (hover to see other rain measurements)
** Current wind speed in m/s (hover to see current wind gust speed)